sensor_id;sensor_type;location;lat;lon;timestamp;pressure;altitude;pressure_sealevel;temperature;humidity
59789;BME280;47353;51.614;5.530;2023-08-08T00:01:29;101339.47;;;13.16;100.00
59789;BME280;47353;51.614;5.530;2023-08-08T00:03:55;101336.13;;;13.19;100.00
59789;BME280;47353;51.614;5.530;2023-08-08T00:06:20;101336.97;;;13.19;100.00
59789;BME280;47353;51.614;5.530;2023-08-08T00:08:46;101336.41;;;13.17;100.00
59789;BME280;47353;51.614;5.530;2023-08-08T00:11:11;101334.75;;;13.21;100.00
59789;BME280;47353;51.614;5.530;2023-08-08T00:13:36;101341.97;;;13.22;100.00
59789;BME280;47353;51.614;5.530;2023-08-08T00:16:02;101339.47;;;13.21;100.00
59789;BME280;47353;51.614;5.530;2023-08-08T00:18:28;101341.41;;;13.25;100.00
59789;BME280;47353;51.614;5.530;2023-08-08T00:20:53;101345.81;;;13.26;100.00
59789;BME280;47353;51.614;5.530;2023-08-08T00:23:18;101343.31;;;13.30;100.00
59789;BME280;47353;51.614;5.530;2023-08-08T00:25:44;101336.63;;;13.31;100.00
59789;BME280;47353;51.614;5.530;2023-08-08T00:28:15;101333.28;;;13.34;100.00
59789;BME280;47353;51.614;5.530;2023-08-08T00:30:40;101337.47;;;13.36;100.00
59789;BME280;47353;51.614;5.530;2023-08-08T00:33:06;101333.00;;;13.40;100.00
59789;BME280;47353;51.614;5.530;2023-08-08T00:35:31;101332.19;;;13.40;100.00
59789;BME280;47353;51.614;5.530;2023-08-08T00:37:56;101328.84;;;13.38;100.00
59789;BME280;47353;51.614;5.530;2023-08-08T00:40:22;101333.28;;;13.39;100.00
59789;BME280;47353;51.614;5.530;2023-08-08T00:42:47;101333.84;;;13.36;100.00
59789;BME280;47353;51.614;5.530;2023-08-08T00:45:13;101327.19;;;13.32;100.00
59789;BME280;47353;51.614;5.530;2023-08-08T00:47:38;101323.03;;;13.29;100.00
59789;BME280;47353;51.614;5.530;2023-08-08T00:50:04;101328.84;;;13.33;100.00
59789;BME280;47353;51.614;5.530;2023-08-08T00:52:30;101311.03;;;13.34;100.00
59789;BME280;47353;51.614;5.530;2023-08-08T00:54:56;101320.78;;;13.36;100.00
59789;BME280;47353;51.614;5.530;2023-08-08T00:57:21;101325.22;;;13.37;100.00
59789;BME280;47353;51.614;5.530;2023-08-08T00:59:47;101324.09;;;13.43;100.00
59789;BME280;47353;51.614;5.530;2023-08-08T01:02:12;101323.00;;;13.45;100.00
59789;BME280;47353;51.614;5.530;2023-08-08T01:04:38;101321.00;;;13.45;100.00
59789;BME280;47353;51.614;5.530;2023-08-08T01:07:20;101325.72;;;13.50;100.00
59789;BME280;47353;51.614;5.530;2023-08-08T01:10:00;101324.34;;;13.52;100.00
59789;BME280;47353;51.614;5.530;2023-08-08T01:12:33;101316.56;;;13.49;100.00
59789;BME280;47353;51.614;5.530;2023-08-08T01:15:00;101328.22;;;13.51;100.00
59789;BME280;47353;51.614;5.530;2023-08-08T01:17:26;101316.25;;;13.56;100.00
59789;BME280;47353;51.614;5.530;2023-08-08T01:19:52;101307.66;;;13.52;100.00
59789;BME280;47353;51.614;5.530;2023-08-08T01:22:32;101320.41;;;13.58;100.00
59789;BME280;47353;51.614;5.530;2023-08-08T01:25:01;101319.88;;;13.56;100.00
59789;BME280;47353;51.614;5.530;2023-08-08T01:27:27;101311.28;;;13.48;100.00
59789;BME280;47353;51.614;5.530;2023-08-08T01:29:53;101312.16;;;13.38;100.00
59789;BME280;47353;51.614;5.530;2023-08-08T01:32:18;101315.78;;;13.33;100.00
59789;BME280;47353;51.614;5.530;2023-08-08T01:34:44;101318.59;;;13.28;100.00
59789;BME280;47353;51.614;5.530;2023-08-08T01:37:30;101309.69;;;13.26;100.00
59789;BME280;47353;51.614;5.530;2023-08-08T01:39:59;101306.38;;;13.24;100.00
59789;BME280;47353;51.614;5.530;2023-08-08T01:42:26;101299.41;;;13.22;100.00
59789;BME280;47353;51.614;5.530;2023-08-08T01:44:53;101308.31;;;13.24;100.00
59789;BME280;47353;51.614;5.530;2023-08-08T01:47:19;101312.75;;;13.25;100.00
59789;BME280;47353;51.614;5.530;2023-08-08T01:49:45;101309.16;;;13.24;100.00
59789;BME280;47353;51.614;5.530;2023-08-08T01:52:10;101309.44;;;13.23;100.00
59789;BME280;47353;51.614;5.530;2023-08-08T01:54:35;101306.66;;;13.23;100.00
59789;BME280;47353;51.614;5.530;2023-08-08T01:57:01;101307.75;;;13.22;100.00
59789;BME280;47353;51.614;5.530;2023-08-08T01:59:26;101299.41;;;13.22;100.00
59789;BME280;47353;51.614;5.530;2023-08-08T02:01:51;101290.56;;;13.20;100.00
59789;BME280;47353;51.614;5.530;2023-08-08T02:04:17;101293.63;;;13.18;100.00
59789;BME280;47353;51.614;5.530;2023-08-08T02:06:42;101300.81;;;13.19;100.00
59789;BME280;47353;51.614;5.530;2023-08-08T02:09:08;101292.50;;;13.14;100.00
59789;BME280;47353;51.614;5.530;2023-08-08T02:11:33;101293.06;;;13.16;100.00
59789;BME280;47353;51.614;5.530;2023-08-08T02:13:58;101293.06;;;13.11;100.00
59789;BME280;47353;51.614;5.530;2023-08-08T02:16:24;101287.56;;;13.01;100.00
59789;BME280;47353;51.614;5.530;2023-08-08T02:18:49;101285.31;;;12.98;100.00
59789;BME280;47353;51.614;5.530;2023-08-08T02:21:15;101283.63;;;12.97;100.00
59789;BME280;47353;51.614;5.530;2023-08-08T02:23:40;101280.03;;;12.97;100.00
59789;BME280;47353;51.614;5.530;2023-08-08T02:26:05;101291.69;;;12.99;100.00
59789;BME280;47353;51.614;5.530;2023-08-08T02:28:31;101291.69;;;12.99;100.00
59789;BME280;47353;51.614;5.530;2023-08-08T02:30:56;101279.75;;;12.98;100.00
59789;BME280;47353;51.614;5.530;2023-08-08T02:33:22;101283.63;;;12.97;100.00
59789;BME280;47353;51.614;5.530;2023-08-08T02:35:47;101280.31;;;12.95;100.00
59789;BME280;47353;51.614;5.530;2023-08-08T02:38:12;101279.19;;;12.96;100.00
59789;BME280;47353;51.614;5.530;2023-08-08T02:40:38;101280.84;;;12.97;100.00
59789;BME280;47353;51.614;5.530;2023-08-08T02:43:04;101282.00;;;13.01;100.00
59789;BME280;47353;51.614;5.530;2023-08-08T02:45:29;101274.19;;;13.03;100.00
59789;BME280;47353;51.614;5.530;2023-08-08T02:47:55;101271.41;;;13.03;100.00
59789;BME280;47353;51.614;5.530;2023-08-08T02:50:23;101263.63;;;13.00;100.00
59789;BME280;47353;51.614;5.530;2023-08-08T02:52:49;101257.78;;;13.02;100.00
59789;BME280;47353;51.614;5.530;2023-08-08T02:55:14;101256.69;;;13.03;100.00
59789;BME280;47353;51.614;5.530;2023-08-08T02:57:40;101257.78;;;13.02;100.00
59789;BME280;47353;51.614;5.530;2023-08-08T03:00:06;101246.41;;;13.03;100.00
59789;BME280;47353;51.614;5.530;2023-08-08T03:02:33;101257.50;;;13.03;100.00
59789;BME280;47353;51.614;5.530;2023-08-08T03:04:59;101248.38;;;13.03;100.00
59789;BME280;47353;51.614;5.530;2023-08-08T03:07:24;101251.97;;;13.03;100.00
59789;BME280;47353;51.614;5.530;2023-08-08T03:09:50;101248.38;;;13.03;100.00
59789;BME280;47353;51.614;5.530;2023-08-08T03:12:15;101257.28;;;13.00;100.00
59789;BME280;47353;51.614;5.530;2023-08-08T03:14:40;101271.16;;;13.00;100.00
59789;BME280;47353;51.614;5.530;2023-08-08T03:17:06;101261.94;;;12.99;100.00
59789;BME280;47353;51.614;5.530;2023-08-08T03:19:31;101251.97;;;12.98;100.00
59789;BME280;47353;51.614;5.530;2023-08-08T03:21:56;101257.81;;;12.97;100.00
59789;BME280;47353;51.614;5.530;2023-08-08T03:24:22;101258.31;;;12.99;100.00
59789;BME280;47353;51.614;5.530;2023-08-08T03:26:47;101251.13;;;12.98;100.00
59789;BME280;47353;51.614;5.530;2023-08-08T03:29:13;101250.84;;;12.94;100.00
59789;BME280;47353;51.614;5.530;2023-08-08T03:31:38;101257.81;;;12.97;100.00
59789;BME280;47353;51.614;5.530;2023-08-08T03:34:04;101250.84;;;12.94;100.00
59789;BME280;47353;51.614;5.530;2023-08-08T03:36:30;101263.09;;;12.93;100.00
59789;BME280;47353;51.614;5.530;2023-08-08T03:38:55;101257.81;;;12.92;100.00
59789;BME280;47353;51.614;5.530;2023-08-08T03:41:21;101266.16;;;12.92;100.00
59789;BME280;47353;51.614;5.530;2023-08-08T03:43:46;101257.53;;;12.88;100.00
59789;BME280;47353;51.614;5.530;2023-08-08T03:46:11;101247.84;;;12.86;100.00
59789;BME280;47353;51.614;5.530;2023-08-08T03:48:38;101256.44;;;12.84;100.00
59789;BME280;47353;51.614;5.530;2023-08-08T03:51:03;101254.19;;;12.86;100.00
59789;BME280;47353;51.614;5.530;2023-08-08T03:53:29;101250.06;;;12.84;100.00
59789;BME280;47353;51.614;5.530;2023-08-08T03:55:54;101245.34;;;12.84;100.00
59789;BME280;47353;51.614;5.530;2023-08-08T03:58:20;101242.84;;;12.83;100.00
59789;BME280;47353;51.614;5.530;2023-08-08T04:00:45;101245.34;;;12.79;100.00
59789;BME280;47353;51.614;5.530;2023-08-08T04:03:15;101249.81;;;12.75;100.00
59789;BME280;47353;51.614;5.530;2023-08-08T04:05:43;101235.09;;;12.65;100.00
59789;BME280;47353;51.614;5.530;2023-08-08T04:08:11;101248.97;;;12.65;100.00
59789;BME280;47353;51.614;5.530;2023-08-08T04:10:36;101245.09;;;12.61;100.00
59789;BME280;47353;51.614;5.530;2023-08-08T04:13:02;101240.38;;;12.61;100.00
59789;BME280;47353;51.614;5.530;2023-08-08T04:15:27;101244.00;;;12.57;100.00
59789;BME280;47353;51.614;5.530;2023-08-08T04:17:53;101240.09;;;12.58;100.00
59789;BME280;47353;51.614;5.530;2023-08-08T04:20:18;101232.06;;;12.56;100.00
59789;BME280;47353;51.614;5.530;2023-08-08T04:22:43;101232.34;;;12.50;100.00
59789;BME280;47353;51.614;5.530;2023-08-08T04:25:09;101239.03;;;12.49;100.00
59789;BME280;47353;51.614;5.530;2023-08-08T04:27:34;101239.81;;;12.49;100.00
59789;BME280;47353;51.614;5.530;2023-08-08T04:29:59;101237.34;;;12.48;100.00
59789;BME280;47353;51.614;5.530;2023-08-08T04:32:25;101235.41;;;12.48;100.00
59789;BME280;47353;51.614;5.530;2023-08-08T04:34:50;101237.91;;;12.45;100.00
59789;BME280;47353;51.614;5.530;2023-08-08T04:37:16;101233.19;;;12.45;100.00
59789;BME280;47353;51.614;5.530;2023-08-08T04:39:41;101236.25;;;12.44;100.00
59789;BME280;47353;51.614;5.530;2023-08-08T04:42:06;101237.09;;;12.44;100.00
59789;BME280;47353;51.614;5.530;2023-08-08T04:44:32;101240.13;;;12.43;100.00
59789;BME280;47353;51.614;5.530;2023-08-08T04:46:57;101252.63;;;12.45;100.00
59789;BME280;47353;51.614;5.530;2023-08-08T04:49:23;101249.00;;;12.45;100.00
59789;BME280;47353;51.614;5.530;2023-08-08T04:51:48;101246.22;;;12.45;100.00
59789;BME280;47353;51.614;5.530;2023-08-08T04:54:13;101242.34;;;12.41;100.00
59789;BME280;47353;51.614;5.530;2023-08-08T04:56:39;101239.56;;;12.46;100.00
59789;BME280;47353;51.614;5.530;2023-08-08T04:59:04;101236.53;;;12.42;100.00
59789;BME280;47353;51.614;5.530;2023-08-08T05:01:30;101239.84;;;12.44;100.00
59789;BME280;47353;51.614;5.530;2023-08-08T05:03:55;101238.19;;;12.48;100.00
59789;BME280;47353;51.614;5.530;2023-08-08T05:06:20;101230.41;;;12.50;100.00
59789;BME280;47353;51.614;5.530;2023-08-08T05:08:46;101251.22;;;12.53;100.00
59789;BME280;47353;51.614;5.530;2023-08-08T05:11:11;101240.09;;;12.53;100.00
59789;BME280;47353;51.614;5.530;2023-08-08T05:13:37;101238.75;;;12.55;100.00
59789;BME280;47353;51.614;5.530;2023-08-08T05:16:02;101247.88;;;12.56;100.00
59789;BME280;47353;51.614;5.530;2023-08-08T05:18:27;101240.09;;;12.58;100.00
59789;BME280;47353;51.614;5.530;2023-08-08T05:20:53;101246.22;;;12.60;100.00
59789;BME280;47353;51.614;5.530;2023-08-08T05:23:18;101236.78;;;12.61;100.00
59789;BME280;47353;51.614;5.530;2023-08-08T05:25:45;101239.81;;;12.64;100.00
59789;BME280;47353;51.614;5.530;2023-08-08T05:28:10;101240.63;;;12.65;100.00
59789;BME280;47353;51.614;5.530;2023-08-08T05:30:35;101234.53;;;12.68;100.00
59789;BME280;47353;51.614;5.530;2023-08-08T05:33:01;101236.44;;;12.72;100.00
59789;BME280;47353;51.614;5.530;2023-08-08T05:35:27;101237.56;;;12.76;100.00
59789;BME280;47353;51.614;5.530;2023-08-08T05:37:53;101247.28;;;12.84;100.00
59789;BME280;47353;51.614;5.530;2023-08-08T05:40:18;101247.25;;;12.89;100.00
59789;BME280;47353;51.614;5.530;2023-08-08T05:42:43;101255.03;;;12.97;100.00
59789;BME280;47353;51.614;5.530;2023-08-08T05:45:09;101248.66;;;13.01;100.00
59789;BME280;47353;51.614;5.530;2023-08-08T05:47:34;101241.66;;;13.09;100.00
59789;BME280;47353;51.614;5.530;2023-08-08T05:50:00;101243.81;;;13.22;100.00
59789;BME280;47353;51.614;5.530;2023-08-08T05:52:25;101246.84;;;13.35;100.00
59789;BME280;47353;51.614;5.530;2023-08-08T05:54:50;101245.66;;;13.47;100.00
59789;BME280;47353;51.614;5.530;2023-08-08T05:57:16;101240.59;;;13.59;100.00
59789;BME280;47353;51.614;5.530;2023-08-08T05:59:41;101242.75;;;13.67;100.00
59789;BME280;47353;51.614;5.530;2023-08-08T06:02:10;101250.78;;;13.73;100.00
59789;BME280;47353;51.614;5.530;2023-08-08T06:04:35;101254.38;;;13.79;100.00
59789;BME280;47353;51.614;5.530;2023-08-08T06:07:00;101246.22;;;13.92;100.00
59789;BME280;47353;51.614;5.530;2023-08-08T06:09:26;101243.59;;;14.06;100.00
59789;BME280;47353;51.614;5.530;2023-08-08T06:11:52;101246.88;;;14.13;100.00
59789;BME280;47353;51.614;5.530;2023-08-08T06:14:18;101258.56;;;14.15;100.00
59789;BME280;47353;51.614;5.530;2023-08-08T06:16:43;101266.88;;;14.20;100.00
59789;BME280;47353;51.614;5.530;2023-08-08T06:19:09;101261.53;;;14.28;100.00
59789;BME280;47353;51.614;5.530;2023-08-08T06:21:35;101255.94;;;14.33;100.00
59789;BME280;47353;51.614;5.530;2023-08-08T06:24:01;101258.63;;;14.43;100.00
59789;BME280;47353;51.614;5.530;2023-08-08T06:26:26;101267.94;;;14.57;100.00
59789;BME280;47353;51.614;5.530;2023-08-08T06:28:51;101262.28;;;14.67;100.00
59789;BME280;47353;51.614;5.530;2023-08-08T06:31:18;101266.69;;;14.73;100.00
59789;BME280;47353;51.614;5.530;2023-08-08T06:33:43;101264.97;;;14.77;100.00
59789;BME280;47353;51.614;5.530;2023-08-08T06:36:09;101264.66;;;14.79;100.00
59789;BME280;47353;51.614;5.530;2023-08-08T06:38:34;101268.84;;;14.81;100.00
59789;BME280;47353;51.614;5.530;2023-08-08T06:41:00;101266.59;;;14.83;100.00
59789;BME280;47353;51.614;5.530;2023-08-08T06:43:26;101262.38;;;14.86;100.00
59789;BME280;47353;51.614;5.530;2023-08-08T06:45:51;101273.22;;;14.87;100.00
59789;BME280;47353;51.614;5.530;2023-08-08T06:48:17;101267.22;;;14.99;100.00
59789;BME280;47353;51.614;5.530;2023-08-08T06:50:42;101274.06;;;15.12;100.00
59789;BME280;47353;51.614;5.530;2023-08-08T06:53:08;101275.75;;;15.13;100.00
59789;BME280;47353;51.614;5.530;2023-08-08T06:55:33;101273.06;;;15.26;100.00
59789;BME280;47353;51.614;5.530;2023-08-08T06:57:59;101269.94;;;15.33;100.00
59789;BME280;47353;51.614;5.530;2023-08-08T07:00:24;101269.31;;;15.41;100.00
59789;BME280;47353;51.614;5.530;2023-08-08T07:02:52;101268.72;;;15.44;100.00
59789;BME280;47353;51.614;5.530;2023-08-08T07:05:17;101281.59;;;15.58;100.00
59789;BME280;47353;51.614;5.530;2023-08-08T07:07:43;101280.25;;;15.56;100.00
59789;BME280;47353;51.614;5.530;2023-08-08T07:10:10;101289.69;;;15.60;100.00
59789;BME280;47353;51.614;5.530;2023-08-08T07:12:36;101280.34;;;16.06;100.00
59789;BME280;47353;51.614;5.530;2023-08-08T07:15:02;101277.53;;;16.25;100.00
59789;BME280;47353;51.614;5.530;2023-08-08T07:17:28;101280.69;;;16.37;100.00
59789;BME280;47353;51.614;5.530;2023-08-08T07:19:53;101286.84;;;16.71;98.69
59789;BME280;47353;51.614;5.530;2023-08-08T07:22:19;101275.38;;;17.00;96.83
59789;BME280;47353;51.614;5.530;2023-08-08T07:24:44;101287.75;;;17.26;93.21
59789;BME280;47353;51.614;5.530;2023-08-08T07:27:09;101282.59;;;17.46;92.10
59789;BME280;47353;51.614;5.530;2023-08-08T07:29:35;101291.19;;;17.63;89.36
59789;BME280;47353;51.614;5.530;2023-08-08T07:32:03;101278.56;;;17.88;88.46
59789;BME280;47353;51.614;5.530;2023-08-08T07:34:29;101281.84;;;18.03;85.87
59789;BME280;47353;51.614;5.530;2023-08-08T07:36:54;101270.91;;;18.15;85.49
59789;BME280;47353;51.614;5.530;2023-08-08T07:39:21;101271.38;;;18.31;84.68
59789;BME280;47353;51.614;5.530;2023-08-08T07:41:46;101267.09;;;18.47;83.58
59789;BME280;47353;51.614;5.530;2023-08-08T07:44:12;101271.38;;;18.31;80.36
59789;BME280;47353;51.614;5.530;2023-08-08T07:46:37;101273.06;;;18.54;81.03
59789;BME280;47353;51.614;5.530;2023-08-08T07:49:03;101272.59;;;18.83;80.31
59789;BME280;47353;51.614;5.530;2023-08-08T07:51:30;101274.22;;;18.75;77.58
59789;BME280;47353;51.614;5.530;2023-08-08T07:53:56;101276.19;;;18.75;77.27
59789;BME280;47353;51.614;5.530;2023-08-08T07:56:21;101264.09;;;19.05;78.56
59789;BME280;47353;51.614;5.530;2023-08-08T07:58:47;101274.34;;;19.01;73.89
59789;BME280;47353;51.614;5.530;2023-08-08T08:01:12;101274.03;;;18.80;74.20
59789;BME280;47353;51.614;5.530;2023-08-08T08:03:39;101282.53;;;18.89;75.02
59789;BME280;47353;51.614;5.530;2023-08-08T08:06:05;101282.31;;;18.77;74.81
59789;BME280;47353;51.614;5.530;2023-08-08T08:08:30;101279.53;;;18.85;73.06
59789;BME280;47353;51.614;5.530;2023-08-08T08:10:56;101282.44;;;19.02;72.71
59789;BME280;47353;51.614;5.530;2023-08-08T08:13:21;101276.63;;;19.29;71.51
59789;BME280;47353;51.614;5.530;2023-08-08T08:15:46;101274.00;;;19.33;70.28
59789;BME280;47353;51.614;5.530;2023-08-08T08:18:12;101276.72;;;19.55;69.92
59789;BME280;47353;51.614;5.530;2023-08-08T08:20:39;101266.66;;;19.62;68.38
59789;BME280;47353;51.614;5.530;2023-08-08T08:23:05;101267.19;;;19.73;69.04
59789;BME280;47353;51.614;5.530;2023-08-08T08:25:30;101268.69;;;19.79;68.63
59789;BME280;47353;51.614;5.530;2023-08-08T08:27:57;101273.38;;;20.18;65.94
59789;BME280;47353;51.614;5.530;2023-08-08T08:30:22;101278.97;;;20.77;65.94
59789;BME280;47353;51.614;5.530;2023-08-08T08:32:50;101274.34;;;20.64;62.67
59789;BME280;47353;51.614;5.530;2023-08-08T08:35:16;101276.47;;;19.91;61.55
59789;BME280;47353;51.614;5.530;2023-08-08T08:37:42;101273.38;;;20.18;63.05
59789;BME280;47353;51.614;5.530;2023-08-08T08:40:08;101281.06;;;20.89;60.68
59789;BME280;47353;51.614;5.530;2023-08-08T08:42:34;101281.88;;;21.73;59.78
59789;BME280;47353;51.614;5.530;2023-08-08T08:45:02;101270.47;;;21.99;55.86
59789;BME280;47353;51.614;5.530;2023-08-08T08:47:30;101278.13;;;22.39;54.38
59789;BME280;47353;51.614;5.530;2023-08-08T08:49:56;101274.31;;;23.45;51.18
59789;BME280;47353;51.614;5.530;2023-08-08T08:52:22;101270.31;;;23.70;49.19
59789;BME280;47353;51.614;5.530;2023-08-08T08:54:48;101276.31;;;23.69;49.51
59789;BME280;47353;51.614;5.530;2023-08-08T08:57:14;101277.91;;;23.94;46.66
59789;BME280;47353;51.614;5.530;2023-08-08T08:59:39;101281.75;;;24.37;45.84
59789;BME280;47353;51.614;5.530;2023-08-08T09:02:05;101280.78;;;24.06;46.54
59789;BME280;47353;51.614;5.530;2023-08-08T09:04:33;101278.59;;;23.07;48.33
59789;BME280;47353;51.614;5.530;2023-08-08T09:07:00;101282.13;;;23.03;50.93
59789;BME280;47353;51.614;5.530;2023-08-08T09:09:26;101275.25;;;23.85;48.37
59789;BME280;47353;51.614;5.530;2023-08-08T09:11:52;101283.28;;;24.75;46.67
59789;BME280;47353;51.614;5.530;2023-08-08T09:14:22;101284.81;;;25.46;43.92
59789;BME280;47353;51.614;5.530;2023-08-08T09:16:49;101289.22;;;25.44;45.57
59789;BME280;47353;51.614;5.530;2023-08-08T09:19:15;101287.72;;;24.08;46.96
59789;BME280;47353;51.614;5.530;2023-08-08T09:21:41;101298.13;;;22.67;50.26
59789;BME280;47353;51.614;5.530;2023-08-08T09:24:07;101283.00;;;21.52;53.58
59789;BME280;47353;51.614;5.530;2023-08-08T09:26:33;101282.78;;;20.64;57.16
59789;BME280;47353;51.614;5.530;2023-08-08T09:29:00;101293.72;;;20.49;60.74
59789;BME280;47353;51.614;5.530;2023-08-08T09:31:25;101276.34;;;20.47;58.86
59789;BME280;47353;51.614;5.530;2023-08-08T09:33:53;101283.59;;;20.65;59.45
59789;BME280;47353;51.614;5.530;2023-08-08T09:36:18;101278.94;;;21.70;57.18
59789;BME280;47353;51.614;5.530;2023-08-08T09:38:47;101299.63;;;22.03;54.23
59789;BME280;47353;51.614;5.530;2023-08-08T09:41:13;101292.25;;;21.14;56.64
59789;BME280;47353;51.614;5.530;2023-08-08T09:43:39;101288.31;;;21.15;58.24
59789;BME280;47353;51.614;5.530;2023-08-08T09:46:04;101284.25;;;20.96;57.60
59789;BME280;47353;51.614;5.530;2023-08-08T09:48:31;101296.72;;;21.53;57.42
59789;BME280;47353;51.614;5.530;2023-08-08T09:51:01;101294.13;;;21.48;57.33
59789;BME280;47353;51.614;5.530;2023-08-08T09:53:27;101292.84;;;22.65;53.17
59789;BME280;47353;51.614;5.530;2023-08-08T09:55:56;101300.72;;;22.31;52.87
59789;BME280;47353;51.614;5.530;2023-08-08T09:58:22;101298.63;;;21.78;54.14
59789;BME280;47353;51.614;5.530;2023-08-08T10:00:50;101299.34;;;21.96;54.44
59789;BME280;47353;51.614;5.530;2023-08-08T10:03:16;101286.00;;;22.99;51.67
59789;BME280;47353;51.614;5.530;2023-08-08T10:05:44;101279.88;;;24.29;48.51
59789;BME280;47353;51.614;5.530;2023-08-08T10:08:09;101287.81;;;24.51;45.10
59789;BME280;47353;51.614;5.530;2023-08-08T10:10:36;101281.81;;;23.89;47.27
59789;BME280;47353;51.614;5.530;2023-08-08T10:13:02;101285.41;;;24.93;43.80
59789;BME280;47353;51.614;5.530;2023-08-08T10:15:28;101277.31;;;25.07;42.06
59789;BME280;47353;51.614;5.530;2023-08-08T10:17:56;101282.28;;;24.55;44.47
59789;BME280;47353;51.614;5.530;2023-08-08T10:20:21;101285.41;;;24.93;42.57
59789;BME280;47353;51.614;5.530;2023-08-08T10:22:47;101288.13;;;24.90;42.65
59789;BME280;47353;51.614;5.530;2023-08-08T10:25:19;101287.72;;;24.48;42.77
59789;BME280;47353;51.614;5.530;2023-08-08T10:27:47;101298.22;;;24.47;44.17
59789;BME280;47353;51.614;5.530;2023-08-08T10:30:13;101288.75;;;24.16;44.26
59789;BME280;47353;51.614;5.530;2023-08-08T10:32:45;101292.75;;;24.67;46.25
59789;BME280;47353;51.614;5.530;2023-08-08T10:35:15;101296.59;;;25.17;42.51
59789;BME280;47353;51.614;5.530;2023-08-08T10:37:52;101294.75;;;24.26;43.60
59789;BME280;47353;51.614;5.530;2023-08-08T10:40:18;101293.56;;;23.07;46.22
59789;BME280;47353;51.614;5.530;2023-08-08T10:42:46;101299.50;;;23.38;47.81
59789;BME280;47353;51.614;5.530;2023-08-08T10:45:14;101287.19;;;24.30;43.08
59789;BME280;47353;51.614;5.530;2023-08-08T10:47:41;101295.47;;;25.34;42.32
59789;BME280;47353;51.614;5.530;2023-08-08T10:50:08;101304.16;;;26.06;41.14
59789;BME280;47353;51.614;5.530;2023-08-08T10:57:58;101293.84;;;26.14;39.72
59789;BME280;47353;51.614;5.530;2023-08-08T11:00:28;101283.59;;;27.05;38.31
59789;BME280;47353;51.614;5.530;2023-08-08T11:02:54;101284.19;;;26.19;39.09
59789;BME280;47353;51.614;5.530;2023-08-08T11:05:22;101283.75;;;25.51;41.06
59789;BME280;47353;51.614;5.530;2023-08-08T11:07:47;101285.19;;;24.58;43.49
59789;BME280;47353;51.614;5.530;2023-08-08T11:10:13;101280.00;;;24.33;44.45
59789;BME280;47353;51.614;5.530;2023-08-08T11:12:38;101278.72;;;24.18;43.75
59789;BME280;47353;51.614;5.530;2023-08-08T11:15:04;101276.03;;;24.10;43.93
59789;BME280;47353;51.614;5.530;2023-08-08T11:17:32;101279.09;;;23.21;44.93
59789;BME280;47353;51.614;5.530;2023-08-08T11:19:57;101285.13;;;22.86;45.72
59789;BME280;47353;51.614;5.530;2023-08-08T11:22:23;101271.41;;;22.64;47.20
59789;BME280;47353;51.614;5.530;2023-08-08T11:24:51;101266.53;;;23.30;46.62
59789;BME280;47353;51.614;5.530;2023-08-08T11:27:17;101260.84;;;23.78;45.05
59789;BME280;47353;51.614;5.530;2023-08-08T11:29:51;101260.41;;;23.76;45.11
59789;BME280;47353;51.614;5.530;2023-08-08T11:32:17;101252.81;;;22.96;47.25
59789;BME280;47353;51.614;5.530;2023-08-08T11:34:43;101263.56;;;22.49;49.28
59789;BME280;47353;51.614;5.530;2023-08-08T11:37:09;101256.25;;;22.16;50.78
59789;BME280;47353;51.614;5.530;2023-08-08T11:39:36;101260.84;;;22.20;51.44
59789;BME280;47353;51.614;5.530;2023-08-08T11:42:02;101254.19;;;23.47;51.07
59789;BME280;47353;51.614;5.530;2023-08-08T11:44:28;101265.50;;;26.17;42.92
59789;BME280;47353;51.614;5.530;2023-08-08T11:46:53;101262.94;;;27.08;39.17
59789;BME280;47353;51.614;5.530;2023-08-08T11:49:19;101269.09;;;26.14;39.61
59789;BME280;47353;51.614;5.530;2023-08-08T11:51:45;101260.81;;;24.97;40.87
59789;BME280;47353;51.614;5.530;2023-08-08T11:54:11;101259.91;;;23.98;43.74
59789;BME280;47353;51.614;5.530;2023-08-08T11:56:37;101278.22;;;22.96;46.12
59789;BME280;47353;51.614;5.530;2023-08-08T11:59:04;101288.00;;;22.04;48.29
59789;BME280;47353;51.614;5.530;2023-08-08T12:01:32;101280.03;;;22.06;51.13
59789;BME280;47353;51.614;5.530;2023-08-08T12:04:03;101273.34;;;23.41;48.88
59789;BME280;47353;51.614;5.530;2023-08-08T12:06:29;101269.03;;;25.95;41.73
59789;BME280;47353;51.614;5.530;2023-08-08T12:08:55;101267.25;;;27.66;37.29
59789;BME280;47353;51.614;5.530;2023-08-08T12:11:20;101267.97;;;28.41;34.99
59789;BME280;47353;51.614;5.530;2023-08-08T12:13:46;101284.34;;;29.14;33.11
59789;BME280;47353;51.614;5.530;2023-08-08T12:16:13;101272.13;;;30.04;32.56
59789;BME280;47353;51.614;5.530;2023-08-08T12:18:39;101279.72;;;30.47;29.90
59789;BME280;47353;51.614;5.530;2023-08-08T12:21:06;101280.94;;;30.50;28.03
59789;BME280;47353;51.614;5.530;2023-08-08T12:23:33;101269.19;;;29.97;29.36
59789;BME280;47353;51.614;5.530;2023-08-08T12:25:59;101276.53;;;30.70;28.41
59789;BME280;47353;51.614;5.530;2023-08-08T12:28:25;101271.03;;;31.40;27.49
59789;BME280;47353;51.614;5.530;2023-08-08T12:30:51;101268.19;;;31.72;27.03
59789;BME280;47353;51.614;5.530;2023-08-08T12:33:16;101263.22;;;32.21;26.62
59789;BME280;47353;51.614;5.530;2023-08-08T12:35:41;101259.16;;;31.94;26.88
59789;BME280;47353;51.614;5.530;2023-08-08T12:38:07;101256.72;;;31.58;28.14
59789;BME280;47353;51.614;5.530;2023-08-08T12:40:32;101259.91;;;30.86;27.63
59789;BME280;47353;51.614;5.530;2023-08-08T12:42:59;101250.50;;;30.96;27.40
59789;BME280;47353;51.614;5.530;2023-08-08T12:45:24;101252.34;;;29.75;28.23